Flight Track Log - Related Links

Times and Time Zones

All times are in EDT time to prevent confusion due to time zone crossing. See the SWA1635 flight status page for this flight to view local times or setup timezone preferences in your user account.

Time Position Orientation Groundspeed Altitude Reporting Facility
EDT Latitude Longitude Course Direction KTS MPH feet Rate Location/Type
Tue 07:12:13 AM 41.3153 -95.9117 325° Northwest 172 198 1,400  Level Minneapolis Center
Tue 07:13:29 AM 41.3669 -95.9594 325° Northwest 216 249 3,800 1,752 Climbing Minneapolis Center
Tue 07:14:30 AM 41.3617 -96.0481 265° West 243 280 5,400 2,754 Climbing Minneapolis Center
Tue 07:15:31 AM 41.3347 -96.1436 249° West 255 293 9,400 2,727 Climbing Minneapolis Center
Tue 07:16:31 AM 41.3175 -96.2536 258° West 292 336 10,900 2,030 Climbing Minneapolis Center
Tue 07:17:44 AM 41.2956 -96.4083 259° West 347 399 13,900 2,507 Climbing Minneapolis Center
Tue 07:18:45 AM 41.2761 -96.5386 259° West 357 411 16,500 2,361 Climbing Minneapolis Center
Tue 07:19:46 AM 41.2556 -96.6725 259° West 366 421 18,700 2,033 Climbing Minneapolis Center
Tue 07:20:46 AM 41.2356 -96.8083 259° West 373 429 20,600 1,983 Climbing Minneapolis Center
Tue 07:21:47 AM 41.2142 -96.9486 259° West 382 440 22,700 1,820 Climbing Minneapolis Center
Tue 07:22:48 AM 41.1922 -97.0856 258° West 384 442 24,300 1,525 Climbing Minneapolis Center
Tue 07:23:49 AM 41.1703 -97.2292 259° West 393 452 25,800 1,426 Climbing Minneapolis Center
Tue 07:24:50 AM 41.1447 -97.3886 258° West 398 458 27,200 1,488 Climbing Minneapolis Center
Tue 07:25:50 AM 41.1208 -97.5364 258° West 406 467 28,800 1,587 Climbing Minneapolis Center
Tue 07:26:51 AM 41.0986 -97.6794 258° West 400 460 30,400 1,377 Climbing Minneapolis Center
Tue 07:27:52 AM 41.0761 -97.8200 258° West 392 451 31,600 984 Climbing Minneapolis Center
Tue 07:28:53 AM 41.0572 -97.9314 257° West 389 448 32,400 984 Climbing Minneapolis Center
Tue 07:29:54 AM 41.0308 -98.0992 258° West 387 445 33,600 787 Climbing Minneapolis Center
Tue 07:30:55 AM 41.0072 -98.2372 257° West 385 443 34,000 179 Climbing Minneapolis Center
Tue 07:32:08 AM 40.9800 -98.4039 258° West 384 442 34,000  Level Minneapolis Center
Tue 07:33:09 AM 40.9550 -98.5489 257° West 380 437 34,000  Level Minneapolis Center
Tue 07:34:10 AM 40.9325 -98.6856 258° West 380 437 34,000  Level Minneapolis Center
Tue 07:35:11 AM 40.9094 -98.8211 257° West 379 436 34,000  Level Minneapolis Center
Tue 07:36:12 AM 40.8861 -98.9575 257° West 381 438 34,000  Level Minneapolis Center
Tue 07:37:25 AM 40.8619 -99.0953 257° West 382 440 34,000  Level Minneapolis Center
Tue 07:38:26 AM 40.8336 -99.2622 257° West 386 444 34,000  Level Minneapolis Center
Tue 07:39:30 AM 40.8036 -99.4294 257° West 389 448 34,000  Level Denver Center
Tue 07:40:30 AM 40.7778 -99.5697 256° West 391 450 34,000  Level Denver Center
Tue 07:41:30 AM 40.7522 -99.7108 257° West 395 455 34,000  Level Denver Center
Tue 07:42:31 AM 40.7264 -99.8533 257° West 397 457 34,000  Level Denver Center
Tue 07:43:31 AM 40.7022 -99.9894 257° West 397 457 34,000  Level Denver Center
Tue 07:44:31 AM 40.6769 -100.1256 256° West 399 459 34,000  Level Denver Center
Tue 07:45:31 AM 40.6483 -100.2853 257° West 399 459 34,000  Level Denver Center
Tue 07:46:31 AM 40.6228 -100.4219 256° West 399 459 34,000  Level Denver Center
Tue 07:47:32 AM 40.5958 -100.5583 255° West 400 460 34,000  Level Denver Center
Tue 07:48:32 AM 40.5700 -100.6956 256° West 400 460 34,000  Level Denver Center
Tue 07:49:32 AM 40.5444 -100.8314 256° West 396 456 34,000  Level Denver Center
Tue 07:50:32 AM 40.5144 -100.9903 256° West 398 458 34,000  Level Denver Center
Tue 07:51:33 AM 40.4886 -101.1267 256° West 400 460 34,000  Level Denver Center
Tue 07:52:33 AM 40.4622 -101.2625 256° West 400 460 34,000  Level Denver Center
Tue 07:53:33 AM 40.4358 -101.3961 255° West 395 455 34,000  Level Denver Center
Tue 07:54:33 AM 40.4044 -101.5547 255° West 401 461 34,000  Level Denver Center
Tue 07:55:34 AM 40.3767 -101.6897 255° West 402 463 34,000  Level Denver Center
Tue 07:56:34 AM 40.3497 -101.8281 256° West 407 468 34,000  Level Denver Center
Tue 07:57:34 AM 40.3178 -101.9881 255° West 407 468 34,000  Level Denver Center
Tue 07:58:34 AM 40.2892 -102.1261 255° West 411 473 34,000  Level Denver Center
Tue 07:59:35 AM 40.2611 -102.2650 255° West 412 474 34,000  Level Denver Center
Tue 08:00:35 AM 40.2322 -102.4028 255° West 412 474 34,000  Level Denver Center
Tue 08:01:36 AM 40.1989 -102.5650 255° West 412 474 34,000  Level Denver Center
Tue 08:02:36 AM 40.1714 -102.6978 255° West 414 476 34,000  Level Denver Center
Tue 08:03:36 AM 40.1428 -102.8444 256° West 414 476 34,000  Level Denver Center
Tue 08:04:37 AM 40.1125 -102.9908 255° West 414 476 34,000  Level Denver Center
Tue 08:05:37 AM 40.0800 -103.1358 254° West 413 475 34,000  Level Denver Center
Tue 08:06:37 AM 40.0494 -103.2811 255° West 413 475 34,000  Level Denver Center
Tue 08:07:38 AM 40.0181 -103.4258 254° West 411 473 34,000  Level Denver Center
Tue 08:08:38 AM 39.9858 -103.5714 254° West 413 475 34,000  Level Denver Center
Tue 08:09:39 AM 39.9525 -103.7150 253° West 412 474 34,000  Level Denver Center
Tue 08:10:39 AM 39.9211 -103.8636 255° West 415 478 34,000  Level Denver Center
Tue 08:11:40 AM 39.8897 -104.0069 254° West 406 467 34,000  Level Denver Center
Tue 08:12:40 AM 39.8572 -104.1547 254° West 419 482 34,000  Level Denver Center
Tue 08:13:41 AM 39.8233 -104.2997 253° West 415 478 34,000  Level Denver Center
Tue 08:14:41 AM 39.7911 -104.4447 254° West 416 479 34,000  Level Denver Center
Tue 08:15:42 AM 39.7567 -104.5900 253° West 419 482 34,000  Level Denver Center
Tue 08:16:43 AM 39.7250 -104.7328 254° West 419 482 34,000  Level Denver Center
Tue 08:17:43 AM 39.6919 -104.8758 253° West 414 476 34,000  Level Denver Center
Tue 08:18:44 AM 39.6586 -105.0200 253° West 413 475 34,000 197 Level Denver Center
Tue 08:19:45 AM 39.6236 -105.1656 253° West 419 482 34,400 942 Climbing Denver Center
Tue 08:20:45 AM 39.5897 -105.3089 253° West 411 473 35,900 793 Climbing Denver Center
Tue 08:21:46 AM 39.5569 -105.4481 253° West 401 461 36,000 49 Climbing Denver Center
Tue 08:22:47 AM 39.5228 -105.5911 253° West 408 470 36,000  Level Denver Center
Tue 08:23:48 AM 39.4831 -105.7550 253° West 406 467 36,000  Level Denver Center
Tue 08:24:48 AM 39.4519 -105.8925 254° West 394 453 36,000  Level Denver Center
Tue 08:25:49 AM 39.4189 -106.0314 253° West 397 457 36,000  Level Denver Center
Tue 08:26:50 AM 39.3853 -106.1650 252° West 397 457 36,000  Level Denver Center
Tue 08:27:51 AM 39.3547 -106.2944 253° West 394 453 36,000  Level Denver Center
Tue 08:28:52 AM 39.3233 -106.4225 252° West 391 450 36,000  Level Denver Center
Tue 08:29:52 AM 39.2861 -106.5714 252° West 389 448 36,000  Level Denver Center
Tue 08:30:53 AM 39.2542 -106.6992 252° West 391 450 36,000  Level Denver Center
Tue 08:31:54 AM 39.2231 -106.8236 252° West 383 441 36,000  Level Denver Center
Tue 08:32:55 AM 39.1853 -106.9728 252° West 389 448 36,000  Level Denver Center
Tue 08:33:56 AM 39.1531 -107.0989 252° West 388 447 36,000  Level Denver Center
Tue 08:34:57 AM 39.1208 -107.2264 252° West 391 450 36,000  Level Denver Center
Tue 08:35:58 AM 39.0817 -107.3761 251° West 394 453 36,000  Level Denver Center
Tue 08:36:59 AM 39.0494 -107.5053 252° West 394 453 36,000  Level Denver Center
Tue 08:38:00 AM 39.0153 -107.6328 251° West 393 452 36,000  Level Denver Center
Tue 08:39:01 AM 38.9767 -107.7828 252° West 394 453 36,000  Level Denver Center
Tue 08:40:02 AM 38.9442 -107.9083 252° West 389 448 36,000  Level Denver Center
Tue 08:41:03 AM 38.9125 -108.0300 252° West 377 434 36,000  Level Denver Center
Tue 08:42:04 AM 38.8756 -108.1722 252° West 375 432 36,000  Level Denver Center
Tue 08:43:05 AM 38.8417 -108.2947 250° West 379 436 36,000  Level Denver Center
Tue 08:44:06 AM 38.8083 -108.4208 251° West 386 444 36,000  Level Denver Center
Tue 08:45:07 AM 38.7700 -108.5644 251° West 381 438 36,000  Level Denver Center
Tue 08:46:08 AM 38.7372 -108.6897 251° West 383 441 36,000  Level Denver Center
Tue 08:47:09 AM 38.7031 -108.8131 250° West 382 440 36,000  Level Denver Center
Tue 08:48:10 AM 38.6636 -108.9558 251° West 381 438 36,000  Level Denver Center
Tue 08:49:11 AM 38.6311 -109.0797 251° West 382 440 36,000  Level Denver Center
Tue 08:50:24 AM 38.5964 -109.2011 250° West 378 435 36,000  Level Denver Center
Tue 08:51:25 AM 38.5517 -109.3647 251° West 382 440 36,000  Level Denver Center
Tue 08:52:26 AM 38.5178 -109.4856 250° West 379 436 36,000  Level Denver Center
Tue 08:53:27 AM 38.4786 -109.6294 251° West 380 437 36,000  Level Denver Center
Tue 08:54:28 AM 38.4344 -109.7464 244° Southwest 383 441 36,000  Level Denver Center
Tue 08:55:29 AM 38.3878 -109.8589 242° Southwest 377 434 36,000  Level Denver Center
Tue 08:56:30 AM 38.3333 -109.9906 242° Southwest 376 433 36,000  Level Denver Center
Tue 08:57:31 AM 38.2883 -110.1053 243° Southwest 379 436 36,000  Level Denver Center
Tue 08:58:32 AM 38.2350 -110.2389 243° Southwest 378 435 36,000  Level Denver Center
Tue 08:59:34 AM 38.1878 -110.3517 242° Southwest 378 435 36,000  Level Denver Center
Tue 09:00:35 AM 38.1417 -110.4650 243° Southwest 375 432 36,000  Level Denver Center
Tue 09:01:16 AM 38.1033 -110.5603 243° Southwest 377 434 36,000  Level Salt Lake Center
Tue 09:01:36 AM 38.0869 -110.5972 241° Southwest 378 435 36,000  Level Denver Center
Tue 09:02:37 AM 38.0411 -110.7094 243° Southwest 374 430 36,000  Level Denver Center
Tue 09:03:38 AM 37.9953 -110.8225 243° Southwest 376 433 36,000  Level Denver Center
Tue 09:04:39 AM 37.9481 -110.9356 242° Southwest 375 432 36,000  Level Denver Center
Tue 09:05:40 AM 37.8906 -111.0769 243° Southwest 377 434 36,000  Level Denver Center
Tue 09:06:21 AM 37.8617 -111.1469 242° Southwest 375 432 36,000  Level Salt Lake Center
Tue 09:07:21 AM 37.8122 -111.2642 242° Southwest 377 434 36,000  Level Salt Lake Center
Tue 09:08:22 AM 37.7639 -111.3803 242° Southwest 375 432 36,000  Level Salt Lake Center
Tue 09:09:23 AM 37.7147 -111.4981 242° Southwest 378 435 36,000 -344 Level Salt Lake Center
Tue 09:10:24 AM 37.6650 -111.6133 241° Southwest 376 433 35,300 -787 Descending Salt Lake Center
Tue 09:11:25 AM 37.6158 -111.7308 242° Southwest 377 434 34,400 -639 Descending Salt Lake Center
Tue 09:12:26 AM 37.5669 -111.8447 242° Southwest 372 428 34,000 -197 Descending Salt Lake Center
Tue 09:13:27 AM 37.5167 -111.9597 241° Southwest 373 429 34,000  Level Salt Lake Center
Tue 09:14:28 AM 37.4681 -112.0747 242° Southwest 372 428 34,000  Level Salt Lake Center
Tue 09:15:29 AM 37.4081 -112.2133 241° Southwest 375 432 34,000  Level Salt Lake Center
Tue 09:16:30 AM 37.3581 -112.3292 242° Southwest 375 432 34,000  Level Salt Lake Center
Tue 09:17:31 AM 37.3081 -112.4444 241° Southwest 374 430 34,000  Level Salt Lake Center
Tue 09:18:32 AM 37.2569 -112.5600 241° Southwest 376 433 34,000  Level Salt Lake Center
Tue 09:19:33 AM 37.2072 -112.6744 241° Southwest 373 429 34,000  Level Salt Lake Center
Tue 09:20:34 AM 37.1564 -112.7872 241° Southwest 370 426 34,000  Level Salt Lake Center
Tue 09:21:35 AM 37.1075 -112.8997 241° Southwest 368 423 34,000  Level Salt Lake Center
Tue 09:22:36 AM 37.0578 -113.0100 241° Southwest 364 419 34,000  Level Salt Lake Center
Tue 09:23:41 AM 37.0086 -113.1231 241° Southwest 367 422 34,000  Level Los Angeles Center
Tue 09:24:42 AM 36.9575 -113.2344 240° Southwest 368 423 34,000  Level Los Angeles Center
Tue 09:25:43 AM 36.9081 -113.3475 241° Southwest 370 426 34,000 -984 Level Los Angeles Center
Tue 09:26:44 AM 36.8483 -113.4822 241° Southwest 370 426 32,000 -2,066 Descending Los Angeles Center
Tue 09:27:45 AM 36.7981 -113.5931 240° Southwest 368 423 29,800 -2,115 Descending Los Angeles Center
Tue 09:28:46 AM 36.7511 -113.6972 241° Southwest 348 400 27,700 -2,049 Descending Los Angeles Center
Tue 09:29:48 AM 36.7064 -113.7967 241° Southwest 332 382 25,600 -2,000 Descending Los Angeles Center
Tue 09:30:49 AM 36.6603 -113.8969 240° Southwest 334 384 23,600 -1,967 Descending Los Angeles Center
Tue 09:31:50 AM 36.6172 -113.9922 241° Southwest 320 368 21,600 -1,869 Descending Los Angeles Center
Tue 09:32:51 AM 36.5750 -114.0828 240° Southwest 306 352 19,800 -1,967 Descending Los Angeles Center
Tue 09:33:52 AM 36.5308 -114.1825 241° Southwest 324 373 17,600 -2,308 Descending Los Angeles Center
Tue 09:34:09 AM 36.5169 -114.2264 249° West 333 383 16,800 -2,164 Descending Los Angeles Center
Tue 09:34:53 AM 36.4808 -114.2872 234° Southwest 315 362 15,400 -1,890 Descending Los Angeles Center
Tue 09:35:22 AM 36.4656 -114.3350 248° West 298 343 14,500 -1,742 Descending Los Angeles Center
Tue 09:35:55 AM 36.4408 -114.3775 234° Southwest 302 348 13,600 -1,714 Descending Los Angeles Center
Tue 09:36:11 AM 36.4314 -114.4056 247° West 299 344 13,100 -1,574 Descending Los Angeles Center
Tue 09:36:56 AM 36.3986 -114.4689 237° Southwest 303 349 12,000 -1,000 Descending Los Angeles Center
Tue 09:37:17 AM 36.3697 -114.4883 208° Southwest 290 334 12,000 -197 Level Los Angeles Center
Tue 09:37:57 AM 36.3294 -114.5136 207° Southwest 282 325 11,800 -806 Descending Los Angeles Center
Tue 09:38:24 AM 36.3017 -114.5328 209° Southwest 253 291 11,100 -1,645 Descending Los Angeles Center
Tue 09:38:59 AM 36.2722 -114.5592 216° Southwest 251 289 10,100 -1,869 Descending Los Angeles Center
Tue 09:39:25 AM 36.2444 -114.5869 219° Southwest 256 295 9,200 -1,672 Descending Los Angeles Center
Tue 09:40:00 AM 36.2125 -114.6086 209° Southwest 256 295 8,400 -1,200 Descending Los Angeles Center
Tue 09:40:25 AM 36.1842 -114.6367 219° Southwest 259 298 8,000 -393 Descending Los Angeles Center
Tue 09:41:01 AM 36.1672 -114.6708 238° Southwest 256 295 8,000  Level Los Angeles Center
Tue 09:41:20 AM 36.1567 -114.7072 250° West 251 289 8,000  Level Los Angeles Center
Tue 09:42:03 AM 36.1389 -114.7533 244° Southwest 259 298 8,000 -500 Level Los Angeles Center
Tue 09:42:20 AM 36.1292 -114.7883 251° West 260 299 7,500 -1,500 Descending Los Angeles Center
Tue 09:43:15 AM 36.1025 -114.8639 246° West 256 295 6,200 -1,257 Descending Los Angeles Center
Tue 09:44:05 AM 36.0861 -114.9108 247° West 251 289 5,300 -964 Descending Los Angeles Center
Tue 09:45:07 AM 36.0722 -114.9850 257° West 207 238 4,400 -976 Descending Los Angeles Center
Tue 09:46:08 AM 36.0747 -115.0475 273° West 192 221 3,300 -927 Descending Los Angeles Center
Tue 09:47:10 AM 36.0744 -115.1006 270° West 174 200 2,500 -634 Descending Los Angeles Center
Tue 09:48:11 AM 36.0739 -115.1464 269° West 154 177 2,000 -492 Descending Los Angeles Center

Login

Don't have an account? Register now (free) for customized features, flight alerts, and more!